createdAt,value
2019-03-29T00:01:47.436Z,18.42
2019-03-29T00:04:21.432Z,15.83
2019-03-29T00:06:55.446Z,15.10
2019-03-29T00:09:29.463Z,14.25
2019-03-29T00:12:04.830Z,11.78
2019-03-29T00:14:39.147Z,12.73
2019-03-29T00:17:13.190Z,10.15
2019-03-29T00:19:47.178Z,10.43
2019-03-29T00:22:26.768Z,8.70
2019-03-29T00:25:07.093Z,8.43
2019-03-29T00:27:42.602Z,8.10
2019-03-29T00:30:17.808Z,7.50
2019-03-29T00:32:53.584Z,7.03
2019-03-29T00:35:27.567Z,7.85
2019-03-29T00:38:01.660Z,8.23
2019-03-29T00:40:35.980Z,8.23
2019-03-29T00:43:11.399Z,7.92
2019-03-29T00:45:46.052Z,8.58
2019-03-29T00:48:21.977Z,6.17
2019-03-29T00:50:58.328Z,5.05
2019-03-29T00:53:33.013Z,5.45
2019-03-29T00:56:07.033Z,5.83
2019-03-29T00:58:41.076Z,6.15
2019-03-29T01:01:16.097Z,5.05
2019-03-29T01:03:51.584Z,5.17
2019-03-29T01:06:25.698Z,5.85
2019-03-29T01:09:01.256Z,7.50
2019-03-29T01:11:38.070Z,6.65
2019-03-29T01:14:12.226Z,6.40
2019-03-29T01:16:46.223Z,6.25
2019-03-29T01:19:20.263Z,5.92
2019-03-29T01:21:54.260Z,6.62
2019-03-29T01:24:28.382Z,7.00
2019-03-29T01:27:07.534Z,6.15
2019-03-29T01:29:46.457Z,7.08
2019-03-29T01:32:25.862Z,8.05
2019-03-29T01:35:05.771Z,7.08
2019-03-29T01:37:39.774Z,7.40
2019-03-29T01:40:13.858Z,6.70
2019-03-29T01:42:47.972Z,7.12
2019-03-29T01:45:22.032Z,6.92
2019-03-29T01:47:56.128Z,7.00
2019-03-29T01:50:30.409Z,6.85
2019-03-29T01:53:04.421Z,7.00
2019-03-29T01:55:38.463Z,7.45
2019-03-29T01:58:12.602Z,7.45
2019-03-29T02:00:46.728Z,6.72
2019-03-29T02:03:20.897Z,7.75
2019-03-29T02:05:55.045Z,8.05
2019-03-29T02:08:35.587Z,8.70
2019-03-29T02:11:05.452Z,7.60
2019-03-29T02:13:39.393Z,7.08
2019-03-29T02:16:14.459Z,5.75
2019-03-29T02:18:48.523Z,5.58
2019-03-29T02:21:22.874Z,6.20
2019-03-29T02:23:57.091Z,5.60
2019-03-29T02:26:31.395Z,6.22
2019-03-29T02:29:05.385Z,6.53
2019-03-29T02:31:42.167Z,6.55
2019-03-29T02:34:16.069Z,5.35
2019-03-29T02:36:50.412Z,5.65
2019-03-29T02:39:24.447Z,5.97
2019-03-29T02:41:58.632Z,5.53
2019-03-29T02:44:34.845Z,5.03
2019-03-29T02:47:08.398Z,6.35
2019-03-29T02:49:43.487Z,5.30
2019-03-29T02:52:17.920Z,5.70
2019-03-29T02:54:51.916Z,5.30
2019-03-29T02:57:25.966Z,7.47
2019-03-29T03:00:01.091Z,6.33
2019-03-29T03:02:35.472Z,4.70
2019-03-29T03:05:10.051Z,5.30
2019-03-29T03:07:44.095Z,4.87
2019-03-29T03:10:18.184Z,5.55
2019-03-29T03:12:52.174Z,5.03
2019-03-29T03:15:26.164Z,4.83
2019-03-29T03:18:00.340Z,4.70
2019-03-29T03:20:34.326Z,4.87
2019-03-29T03:23:08.348Z,5.40
2019-03-29T03:25:42.523Z,4.60
2019-03-29T03:28:16.551Z,4.92
2019-03-29T03:30:50.684Z,5.20
2019-03-29T03:33:24.796Z,5.25
2019-03-29T03:35:58.796Z,5.35
2019-03-29T03:38:33.029Z,5.58
2019-03-29T03:41:07.669Z,5.60
2019-03-29T03:43:42.806Z,5.25
2019-03-29T03:46:16.913Z,5.28
2019-03-29T03:48:50.983Z,5.60
2019-03-29T03:51:25.117Z,6.33
2019-03-29T03:53:59.775Z,6.72
2019-03-29T03:56:33.783Z,7.40
2019-03-29T03:59:07.811Z,5.85
2019-03-29T04:01:41.744Z,6.12
2019-03-29T04:04:15.778Z,12.45
2019-03-29T04:06:49.820Z,12.03
2019-03-29T04:09:24.882Z,10.68
2019-03-29T04:11:58.942Z,12.20
2019-03-29T04:14:33.010Z,11.12
2019-03-29T04:17:08.013Z,12.28
2019-03-29T04:19:42.102Z,11.10
2019-03-29T04:22:16.103Z,9.95
2019-03-29T04:24:50.281Z,11.38
2019-03-29T04:27:24.279Z,9.88
2019-03-29T04:29:58.327Z,9.93
2019-03-29T04:32:32.423Z,9.18
2019-03-29T04:35:06.436Z,7.53
2019-03-29T04:37:40.662Z,7.85
2019-03-29T04:40:14.679Z,7.67
2019-03-29T04:42:48.741Z,7.40
2019-03-29T04:45:22.779Z,8.23
2019-03-29T04:47:56.769Z,9.28
2019-03-29T04:50:30.776Z,9.93
2019-03-29T04:53:04.825Z,9.58
2019-03-29T04:55:38.993Z,8.68
2019-03-29T04:58:12.998Z,9.05
2019-03-29T05:00:47.370Z,9.20
2019-03-29T05:03:21.568Z,8.20
2019-03-29T05:05:56.035Z,8.85
2019-03-29T05:08:30.173Z,8.58
2019-03-29T05:11:04.345Z,8.85
2019-03-29T05:13:40.290Z,9.80
2019-03-29T05:16:14.430Z,10.82
2019-03-29T05:18:48.626Z,10.53
2019-03-29T05:21:22.662Z,10.00
2019-03-29T05:23:56.761Z,9.45
2019-03-29T05:26:30.920Z,11.22
2019-03-29T05:29:04.999Z,13.08
2019-03-29T05:31:39.136Z,15.10
2019-03-29T05:34:20.418Z,11.78
2019-03-29T05:36:58.545Z,13.22
2019-03-29T05:39:32.839Z,12.35
2019-03-29T05:42:06.981Z,10.78
2019-03-29T05:44:41.140Z,11.10
2019-03-29T05:47:15.195Z,11.55
2019-03-29T05:49:49.350Z,11.97
2019-03-29T05:52:23.552Z,11.75
2019-03-29T05:54:57.606Z,9.65
2019-03-29T05:57:32.896Z,12.40
2019-03-29T06:00:07.749Z,11.60
2019-03-29T06:02:42.046Z,11.12
2019-03-29T06:05:18.660Z,11.70
2019-03-29T06:09:14.765Z,12.05
2019-03-29T06:12:06.699Z,11.20
2019-03-29T06:14:41.866Z,11.85
2019-03-29T06:17:15.927Z,13.10
2019-03-29T06:19:50.130Z,15.48
2019-03-29T06:22:53.389Z,20.70
2019-03-29T06:25:32.966Z,20.48
2019-03-29T06:28:07.354Z,15.98
2019-03-29T06:30:41.368Z,13.75
2019-03-29T06:33:16.589Z,12.68
2019-03-29T06:35:50.676Z,14.00
2019-03-29T06:38:25.069Z,12.18
2019-03-29T06:41:03.210Z,12.93
2019-03-29T06:43:35.736Z,14.25
2019-03-29T06:46:10.850Z,15.83
2019-03-29T06:48:44.990Z,12.47
2019-03-29T06:51:19.456Z,18.85
2019-03-29T06:53:53.668Z,15.85
2019-03-29T06:56:28.072Z,13.95
2019-03-29T06:59:02.106Z,10.58
2019-03-29T07:01:37.286Z,11.12
2019-03-29T07:04:11.957Z,11.88
2019-03-29T07:06:46.100Z,10.93
2019-03-29T07:09:20.241Z,12.30
2019-03-29T07:11:54.575Z,12.53
2019-03-29T07:14:28.639Z,10.95
2019-03-29T07:17:04.055Z,9.10
2019-03-29T07:19:38.326Z,8.85
2019-03-29T07:22:12.503Z,11.85
2019-03-29T07:24:46.565Z,13.10
2019-03-29T07:27:20.743Z,12.23
2019-03-29T07:29:55.270Z,8.38
2019-03-29T07:32:37.416Z,12.65
2019-03-29T07:35:09.971Z,8.78
2019-03-29T07:37:53.044Z,6.55
2019-03-29T07:40:35.207Z,5.15
2019-03-29T07:43:09.395Z,5.37
2019-03-29T07:46:01.723Z,5.55
2019-03-29T07:48:35.850Z,5.75
2019-03-29T07:51:10.017Z,5.08
2019-03-29T07:53:45.383Z,5.30
2019-03-29T07:56:21.755Z,4.87
2019-03-29T07:59:04.635Z,8.40
2019-03-29T08:01:38.654Z,8.23
2019-03-29T08:07:37.000Z,5.47
2019-03-29T08:10:27.537Z,6.00
2019-03-29T08:13:01.574Z,3.60
2019-03-29T08:15:35.664Z,4.10
2019-03-29T08:18:13.997Z,10.72
2019-03-29T08:20:49.881Z,14.73
2019-03-29T08:23:28.510Z,7.67
2019-03-29T08:26:00.902Z,9.58
2019-03-29T17:19:41.911Z,13.95
2019-03-29T17:22:20.552Z,10.82
2019-03-29T17:24:57.466Z,15.08
2019-03-29T17:27:35.180Z,15.05
2019-03-29T17:30:17.025Z,16.45
2019-03-29T17:32:56.612Z,17.35
2019-03-29T17:35:34.101Z,16.48
2019-03-29T17:42:00.092Z,13.53
2019-03-29T17:44:35.238Z,17.12
2019-03-29T17:47:09.319Z,19.77
2019-03-29T17:49:43.392Z,55.20
2019-03-29T17:52:17.550Z,22.30
2019-03-29T17:54:51.527Z,12.20
2019-03-29T17:57:25.656Z,13.38
2019-03-29T17:59:59.774Z,16.42
2019-03-29T18:02:34.030Z,13.13
2019-03-29T18:05:08.616Z,52.75
2019-03-29T18:07:43.248Z,25.77
2019-03-29T18:10:17.390Z,19.12
2019-03-29T18:12:53.086Z,19.20
2019-03-29T18:15:27.181Z,11.12
2019-03-29T18:18:01.383Z,14.50
2019-03-29T18:20:35.496Z,14.80
2019-03-29T18:23:09.510Z,36.40
2019-03-29T18:25:44.485Z,33.00
2019-03-29T18:28:19.196Z,13.78
2019-03-29T18:30:53.554Z,10.35
2019-03-29T18:33:27.676Z,11.78
2019-03-29T18:36:01.766Z,11.28
2019-03-29T18:38:36.837Z,14.13
2019-03-29T18:41:10.718Z,14.83
2019-03-29T18:43:44.915Z,16.87
2019-03-29T18:46:19.085Z,16.45
2019-03-29T18:48:53.119Z,15.15
2019-03-29T18:51:27.059Z,13.22
2019-03-29T18:54:00.932Z,19.62
2019-03-29T18:56:36.595Z,18.98
2019-03-29T18:59:13.641Z,26.80
2019-03-29T19:01:47.619Z,19.85
2019-03-29T19:04:21.607Z,135.82
2019-03-29T19:06:55.669Z,107.87
2019-03-29T19:09:31.696Z,37.63
2019-03-29T19:12:05.140Z,24.12
2019-03-29T19:14:41.608Z,36.80
2019-03-29T19:17:14.999Z,45.20
2019-03-29T19:19:48.967Z,49.40
2019-03-29T19:22:22.861Z,38.05
2019-03-29T19:24:56.718Z,21.20
2019-03-29T19:27:31.660Z,29.87
2019-03-29T19:30:05.642Z,40.65
2019-03-29T19:32:39.844Z,32.00
2019-03-29T19:35:13.764Z,32.13
2019-03-29T19:37:47.673Z,38.40
2019-03-29T19:40:28.552Z,63.38
2019-03-29T19:43:02.619Z,59.67
2019-03-29T19:45:36.553Z,39.70
2019-03-29T19:48:11.097Z,41.15
2019-03-29T19:50:45.577Z,71.70
2019-03-29T19:53:20.344Z,42.40
2019-03-29T19:55:54.387Z,26.35
2019-03-29T19:58:28.425Z,28.87
2019-03-29T20:01:02.462Z,31.75
2019-03-29T20:03:36.708Z,24.60
2019-03-29T20:06:10.853Z,22.40
2019-03-29T20:08:44.891Z,34.92
2019-03-29T20:11:18.924Z,35.60
2019-03-29T20:13:54.444Z,48.58
2019-03-29T20:16:29.657Z,37.38
2019-03-29T20:19:05.351Z,26.68
2019-03-29T20:21:40.522Z,16.77
2019-03-29T20:24:16.586Z,21.25
2019-03-29T20:26:54.428Z,22.93
2019-03-29T20:29:28.659Z,25.80
2019-03-29T20:32:02.838Z,27.07
2019-03-29T20:34:36.904Z,35.30
2019-03-29T20:37:11.008Z,31.23
2019-03-29T20:39:45.033Z,39.23
2019-03-29T20:42:19.066Z,32.35
2019-03-29T20:44:53.767Z,51.10
2019-03-29T20:47:41.047Z,44.38
2019-03-29T20:50:03.340Z,28.67
2019-03-29T20:52:38.331Z,37.98
2019-03-29T20:55:12.190Z,45.83
2019-03-29T20:57:46.740Z,38.40
2019-03-29T21:00:21.465Z,45.75
2019-03-29T21:02:55.451Z,44.73
2019-03-29T21:05:29.512Z,49.30
2019-03-29T21:08:03.670Z,47.53
2019-03-29T21:10:37.702Z,83.12
2019-03-29T21:13:11.789Z,83.33
2019-03-29T21:15:45.866Z,63.02
2019-03-29T21:18:20.611Z,39.88
2019-03-29T21:20:55.278Z,34.50
2019-03-29T21:23:29.337Z,32.33
2019-03-29T21:26:03.272Z,36.88
2019-03-29T21:28:38.362Z,34.50
2019-03-29T21:31:12.698Z,26.45
2019-03-29T21:33:46.734Z,28.42
2019-03-29T21:36:21.726Z,24.37
2019-03-29T21:38:55.747Z,23.02
2019-03-29T21:41:29.789Z,20.82
2019-03-29T21:44:03.720Z,18.90
2019-03-29T21:46:38.163Z,20.97
2019-03-29T21:49:11.895Z,25.90
2019-03-29T21:51:45.805Z,29.40
2019-03-29T21:54:19.532Z,27.90
2019-03-29T21:56:53.349Z,28.70
2019-03-29T21:59:27.190Z,29.67
2019-03-29T22:02:01.059Z,24.07
2019-03-29T22:04:34.894Z,22.00
2019-03-29T22:07:08.728Z,21.10
2019-03-29T22:09:42.537Z,21.55
2019-03-29T22:12:16.309Z,21.05
2019-03-29T22:14:50.162Z,18.65
2019-03-29T22:17:24.410Z,17.20
2019-03-29T22:19:58.206Z,17.90
2019-03-29T22:22:32.036Z,18.98
2019-03-29T22:25:06.301Z,15.90
2019-03-29T22:27:40.037Z,15.45
2019-03-29T22:30:14.167Z,16.45
2019-03-29T22:32:48.179Z,29.02
2019-03-29T22:35:21.990Z,32.08
2019-03-29T22:37:55.727Z,32.17
2019-03-29T22:40:29.551Z,30.20
2019-03-29T22:43:03.380Z,29.30
2019-03-29T22:45:37.189Z,30.55
2019-03-29T22:48:11.057Z,30.32
2019-03-29T22:50:44.902Z,26.30
2019-03-29T22:53:18.722Z,22.67
2019-03-29T22:55:52.534Z,18.30
2019-03-29T22:58:28.511Z,16.93
2019-03-29T23:01:01.977Z,16.27
2019-03-29T23:03:35.806Z,15.03
2019-03-29T23:06:09.716Z,17.45
2019-03-29T23:08:43.535Z,29.12
2019-03-29T23:11:17.381Z,27.17
2019-03-29T23:13:51.183Z,21.73
2019-03-29T23:16:25.007Z,21.15
2019-03-29T23:19:06.362Z,19.92
2019-03-29T23:21:34.318Z,18.92
2019-03-29T23:24:08.266Z,15.20
2019-03-29T23:26:42.048Z,16.75
2019-03-29T23:29:15.924Z,16.60
2019-03-29T23:31:49.810Z,15.80
2019-03-29T23:34:23.627Z,17.07
2019-03-29T23:36:58.638Z,18.42
2019-03-29T23:39:32.518Z,18.85
2019-03-29T23:42:06.404Z,20.57
2019-03-29T23:44:40.237Z,20.80
2019-03-29T23:47:14.170Z,19.20
2019-03-29T23:49:48.102Z,17.37
2019-03-29T23:52:21.881Z,15.38
2019-03-29T23:54:55.709Z,15.28
2019-03-29T23:57:29.508Z,17.15
